Terminal Aerodrome Forecast
Issued by NWS

Home | Current Version | Previous Version | Text Only | Print | Product List | Glossary On
Versions: 1 2 3 4 5 6 7 8 9 10 11 12 13 14 15 16 17
000
FTUS41 KPBZ 280300 AAB
TAFMGW
TAF AMD
KMGW 280307Z 2803/2824 00000KT P6SM BKN015
     FM280400 34005KT 4SM BR BKN025
     FM280800 33005KT 2SM BR BKN010
     FM281300 36005KT P6SM SKC=

USA.gov is the U.S. government's official web portal to all federal, state and local government web resources and services.